Time;durP1;ratioP1;P1;durP2;ratioP2;P2;SDS_P1;SDS_P2;PMS_P1;PMS_P2;Temp;Humidity;BMP_temperature;BMP_pressure;BME280_temperature;BME280_humidity;BME280_pressure;Samples;Min_cycle;Max_cycle;Signal;HPM_P1;HPM_P2
2021/12/12 00:00:44;;;;;;;6.60;3.40;;;;;;;14.49;75.90;100796.59;4868135;29;20039;-91
2021/12/12 00:03:39;;;;;;;6.82;3.00;;;;;;;14.39;75.57;100774.31;4854692;29;20144;-94
2021/12/12 00:09:40;;;;;;;5.93;3.20;;;;;;;14.14;76.11;100746.19;4870892;29;20051;-94
2021/12/12 00:12:39;;;;;;;6.85;3.42;;;;;;;14.50;76.17;100793.09;4845839;29;20057;-94
2021/12/12 00:15:07;;;;;;;7.15;3.92;;;;;;;14.40;75.87;100762.97;4848224;29;20033;-95
2021/12/12 00:17:39;;;;;;;6.78;3.67;;;;;;;14.50;75.57;100778.25;4870139;29;20033;-92
2021/12/12 00:20:21;;;;;;;6.35;3.35;;;;;;;14.62;75.48;100783.09;4854143;29;20061;-93
2021/12/12 00:23:06;;;;;;;5.03;3.10;;;;;;;14.66;75.27;100772.75;4844887;29;20183;-92
2021/12/12 00:25:52;;;;;;;7.22;3.78;;;;;;;14.65;75.43;100780.59;4866586;29;20029;-93
2021/12/12 00:28:23;;;;;;;6.38;3.47;;;;;;;14.65;75.44;100772.72;4847889;29;20518;-92
2021/12/12 00:31:03;;;;;;;4.40;3.15;;;;;;;14.32;75.97;100725.88;4862742;29;20128;-92
2021/12/12 00:33:30;;;;;;;7.47;3.65;;;;;;;14.46;75.51;100732.56;4854993;29;20037;-94
2021/12/12 00:36:04;;;;;;;6.40;3.28;;;;;;;14.48;75.65;100735.25;4886538;29;20066;-95
2021/12/12 00:38:33;;;;;;;6.85;3.20;;;;;;;14.70;75.34;100758.00;4857794;29;20033;-95
2021/12/12 00:41:10;;;;;;;7.40;3.70;;;;;;;14.65;75.51;100760.47;4863593;29;20059;-95
2021/12/12 00:43:49;;;;;;;6.53;3.40;;;;;;;14.76;75.40;100758.22;4858224;29;20525;-95
2021/12/12 00:46:18;;;;;;;6.65;3.47;;;;;;;14.70;75.43;100763.25;4856175;29;20025;-95
2021/12/12 00:48:52;;;;;;;6.57;3.60;;;;;;;14.71;75.67;100764.16;4890305;29;20108;-94
2021/12/12 00:51:31;;;;;;;6.68;3.33;;;;;;;14.73;75.61;100775.59;4850805;29;20044;-93
2021/12/12 00:53:59;;;;;;;8.73;3.83;;;;;;;14.55;75.58;100731.13;4854055;29;20510;-94
2021/12/12 00:56:29;;;;;;;8.23;3.58;;;;;;;14.59;75.47;100747.09;4850643;29;20032;-92
2021/12/12 00:59:03;;;;;;;5.47;3.10;;;;;;;14.46;75.67;100729.94;4872948;29;20043;-93
2021/12/12 01:01:48;;;;;;;6.80;3.50;;;;;;;14.74;75.73;100773.06;4871198;29;20097;-90
2021/12/12 01:04:41;;;;;;;8.25;3.30;;;;;;;14.58;75.95;100740.06;4873033;29;20040;-88
2021/12/12 01:07:32;;;;;;;4.88;3.15;;;;;;;14.83;75.16;100761.97;4875853;29;20029;-92
2021/12/12 01:10:27;;;;;;;6.20;3.47;;;;;;;14.64;75.54;100729.75;4850879;29;20092;-91
2021/12/12 01:12:56;;;;;;;6.15;3.17;;;;;;;14.77;75.56;100756.50;4865342;29;20033;-90
2021/12/12 01:16:16;;;;;;;6.20;3.60;;;;;;;14.77;75.79;100757.38;4873348;29;20037;-90
2021/12/12 01:19:06;;;;;;;7.45;3.65;;;;;;;14.64;75.88;100728.88;4873762;29;20595;-89
2021/12/12 01:21:38;;;;;;;6.50;3.65;;;;;;;14.68;75.66;100725.50;4855826;29;20047;-89
2021/12/12 01:24:18;;;;;;;7.10;3.50;;;;;;;14.87;75.30;100740.22;4877439;29;20108;-91
2021/12/12 01:26:46;;;;;;;7.38;3.67;;;;;;;14.71;75.48;100708.94;4871699;29;20063;-92
2021/12/12 01:29:12;;;;;;;6.78;3.50;;;;;;;14.93;75.29;100731.66;4876622;29;20017;-89
2021/12/12 01:31:47;;;;;;;6.95;4.03;;;;;;;14.75;75.42;100716.09;4866048;29;20044;-91
2021/12/12 01:34:19;;;;;;;9.48;3.42;;;;;;;14.63;75.72;100704.31;4874038;29;20044;-91
2021/12/12 01:37:42;;;;;;;7.10;3.50;;;;;;;14.80;76.07;100740.84;4868573;29;20041;-91
2021/12/12 01:39:43;;;;;;;6.10;3.60;;;;;;;14.74;75.78;100725.72;4851924;29;20089;-91
2021/12/12 01:42:16;;;;;;;4.60;3.42;;;;;;;14.80;75.59;100739.09;4864884;29;20033;-91
2021/12/12 01:44:55;;;;;;;7.45;3.80;;;;;;;14.46;76.19;100700.16;4862106;29;20060;-91
2021/12/12 01:50:48;;;;;;;7.90;4.00;;;;;;;14.60;76.17;100729.59;4885470;29;20596;-93
2021/12/12 01:53:17;;;;;;;8.32;3.75;;;;;;;14.49;76.41;100721.28;4885327;29;20036;-92
2021/12/12 01:56:24;;;;;;;7.03;3.55;;;;;;;14.69;76.28;100739.53;4853797;29;20044;-93
2021/12/12 01:58:54;;;;;;;6.72;3.80;;;;;;;14.72;76.08;100740.56;4867120;29;20041;-95
2021/12/12 02:01:28;;;;;;;7.95;3.80;;;;;;;14.53;75.83;100690.75;4848659;29;20033;-96
2021/12/12 02:04:19;;;;;;;7.30;3.30;;;;;;;14.83;75.70;100739.19;4853801;29;20033;-93
2021/12/12 02:06:52;;;;;;;8.45;4.03;;;;;;;14.85;75.64;100734.00;4866611;29;20056;-96
2021/12/12 02:09:23;;;;;;;7.18;3.97;;;;;;;14.71;75.83;100703.69;4847257;29;20120;-95
2021/12/12 02:12:02;;;;;;;6.60;3.58;;;;;;;14.82;75.85;100729.53;4873024;29;20047;-95
2021/12/12 02:15:04;;;;;;;8.18;3.67;;;;;;;14.78;75.99;100717.13;4853561;29;20036;-94
2021/12/12 02:17:59;;;;;;;7.82;4.10;;;;;;;14.78;76.22;100725.00;4847904;29;20124;-94
2021/12/12 02:21:16;;;;;;;7.22;3.88;;;;;;;14.79;76.29;100724.16;4867082;29;20146;-94
2021/12/12 02:35:49;;;;;;;6.35;3.60;;;;;;;14.75;75.55;100688.13;4862515;29;20097;-95
2021/12/12 02:38:19;;;;;;;5.80;3.97;;;;;;;14.91;75.88;100723.72;4863932;29;20052;-95
2021/12/12 02:41:07;;;;;;;7.90;3.88;;;;;;;14.74;75.61;100686.31;4848008;29;20049;-94
2021/12/12 02:43:59;;;;;;;6.78;3.50;;;;;;;14.47;76.00;100662.50;4838321;29;20523;-96
2021/12/12 02:46:32;;;;;;;7.43;3.78;;;;;;;14.98;75.48;100727.44;4838026;29;20037;-95
2021/12/12 02:49:24;;;;;;;5.68;3.55;;;;;;;14.86;75.67;100713.03;4852357;29;20033;-95
2021/12/12 02:52:16;;;;;;;7.82;3.90;;;;;;;14.99;75.51;100738.03;4838523;29;20037;-94
2021/12/12 02:55:00;;;;;;;6.97;3.88;;;;;;;14.98;75.73;100727.44;4863902;29;20128;-96
2021/12/12 02:57:53;;;;;;;6.70;3.40;;;;;;;14.98;75.50;100730.97;4845276;29;20056;-95
2021/12/12 03:01:10;;;;;;;5.88;3.38;;;;;;;14.99;75.47;100738.03;4845985;29;20112;-93
2021/12/12 03:03:46;;;;;;;8.30;3.50;;;;;;;15.04;75.39;100733.81;4861863;29;20045;-96
2021/12/12 03:06:58;;;;;;;8.50;3.97;;;;;;;15.02;75.70;100737.25;4845764;29;20033;-93
2021/12/12 03:09:42;;;;;;;5.82;3.63;;;;;;;14.40;75.16;100634.25;4852141;29;20484;-95
2021/12/12 03:12:16;;;;;;;5.53;3.17;;;;;;;14.77;75.82;100710.06;4860643;29;20121;-93
2021/12/12 03:14:47;;;;;;;8.63;3.92;;;;;;;14.46;75.35;100653.75;4848710;29;20097;-96
2021/12/12 03:17:20;;;;;;;6.15;3.80;;;;;;;14.57;75.25;100661.16;4846239;29;20021;-95
2021/12/12 03:19:52;;;;;;;8.82;3.58;;;;;;;14.78;75.51;100710.97;4848095;29;20038;-96
2021/12/12 03:22:29;;;;;;;6.57;3.60;;;;;;;14.44;75.39;100637.03;4855416;29;20034;-96
2021/12/12 03:24:58;;;;;;;6.18;3.50;;;;;;;14.85;75.84;100731.38;4845113;29;20103;-94
2021/12/12 03:27:24;;;;;;;7.28;3.63;;;;;;;14.90;75.52;100734.16;4857064;29;20025;-95
2021/12/12 03:29:58;;;;;;;6.47;3.53;;;;;;;15.10;75.47;100774.34;4868694;29;20155;-95
2021/12/12 03:32:31;;;;;;;5.95;3.50;;;;;;;15.13;75.13;100761.28;4854492;29;20029;-95
2021/12/12 03:35:13;;;;;;;7.93;4.00;;;;;;;15.05;75.03;100755.78;4859754;29;20033;-95
2021/12/12 03:37:48;;;;;;;5.85;3.30;;;;;;;15.09;75.19;100769.91;4848748;29;20050;-95
2021/12/12 03:40:28;;;;;;;6.68;3.88;;;;;;;15.11;75.53;100787.53;4865026;29;20076;-93
2021/12/12 03:42:57;;;;;;;8.88;3.75;;;;;;;15.18;75.18;100793.94;4877882;29;20033;-92
2021/12/12 03:45:25;;;;;;;6.47;3.50;;;;;;;15.05;75.41;100774.19;4845113;29;20068;-91
2021/12/12 03:48:06;;;;;;;5.75;3.58;;;;;;;15.23;75.13;100789.72;4851121;29;20025;-92
2021/12/12 03:50:36;;;;;;;5.72;3.53;;;;;;;15.06;75.09;100766.31;4871116;29;20040;-91
2021/12/12 03:53:19;;;;;;;7.40;3.88;;;;;;;15.09;75.23;100781.34;4864637;29;20036;-93
2021/12/12 03:56:11;;;;;;;6.93;3.70;;;;;;;15.16;75.40;100799.13;4854279;29;20029;-91
2021/12/12 03:58:40;;;;;;;4.68;3.05;;;;;;;15.22;75.08;100809.88;4867472;29;20025;-93
2021/12/12 04:01:14;;;;;;;6.03;3.63;;;;;;;15.17;75.44;100837.72;4863022;29;20033;-93
2021/12/12 04:07:05;;;;;;;6.18;3.80;;;;;;;14.82;76.02;100853.09;4882696;29;20044;-93
2021/12/12 04:10:13;;;;;;;11.18;4.38;;;;;;;14.99;76.11;100879.16;4856491;29;20040;-94
2021/12/12 04:16:27;;;;;;;7.45;3.75;;;;;;;14.91;76.40;100886.72;4883746;29;20043;-93
2021/12/12 04:18:54;;;;;;;8.88;3.75;;;;;;;14.65;76.09;100841.94;4859477;29;20041;-92
2021/12/12 04:21:21;;;;;;;6.22;3.90;;;;;;;14.93;75.58;100884.16;4875079;29;20048;-92
2021/12/12 04:23:52;;;;;;;5.45;3.60;;;;;;;14.79;75.93;100862.59;4885401;29;20041;-94
2021/12/12 04:26:33;;;;;;;6.45;3.65;;;;;;;14.37;75.95;100797.00;4848532;29;20037;-94
2021/12/12 04:29:17;;;;;;;5.72;3.20;;;;;;;14.78;75.91;100863.44;4859351;29;20041;-92
2021/12/12 04:31:48;;;;;;;9.43;3.42;;;;;;;14.91;75.66;100868.31;4840938;29;20487;-96
2021/12/12 04:34:20;;;;;;;6.30;3.30;;;;;;;14.81;75.90;100863.56;4849702;29;20524;-92
2021/12/12 04:40:03;;;;;;;5.95;3.17;;;;;;;15.01;75.63;100882.72;4871779;29;20056;-94
2021/12/12 04:46:07;;;;;;;5.07;3.20;;;;;;;14.98;76.04;100901.91;4879108;29;20045;-95
2021/12/12 04:52:47;;;;;;;7.57;3.55;;;;;;;15.00;75.82;100904.59;4843246;29;20629;-91
2021/12/12 04:56:04;;;;;;;5.45;2.97;;;;;;;15.00;76.11;100902.84;4853751;29;20049;-93
2021/12/12 04:59:08;;;;;;;4.78;3.00;;;;;;;14.99;76.34;100894.94;4878194;29;20131;-93
2021/12/12 05:04:59;;;;;;;6.57;3.15;;;;;;;14.99;76.39;100905.44;4879550;29;20142;-92
2021/12/12 05:10:51;;;;;;;5.30;3.38;;;;;;;14.71;75.90;100859.69;4876679;29;20079;-93
2021/12/12 05:13:57;;;;;;;5.10;3.20;;;;;;;15.04;75.99;100909.13;4859135;29;20052;-92
2021/12/12 05:17:13;;;;;;;4.82;2.90;;;;;;;15.09;75.96;100915.47;4879195;29;20043;-95
2021/12/12 05:19:51;;;;;;;5.72;2.92;;;;;;;14.92;75.74;100906.94;4884187;29;20029;-93
2021/12/12 05:22:22;;;;;;;4.97;3.05;;;;;;;15.13;75.77;100946.28;4867459;29;20050;-87
2021/12/12 05:24:55;;;;;;;4.82;3.15;;;;;;;14.91;75.95;100918.28;4856858;29;20389;-91
2021/12/12 05:27:49;;;;;;;5.70;3.03;;;;;;;15.05;76.28;100946.03;4850541;29;20035;-95
2021/12/12 05:30:28;;;;;;;7.07;2.97;;;;;;;14.76;75.90;100886.16;4843396;29;20109;-94
2021/12/12 05:32:57;;;;;;;4.15;2.70;;;;;;;15.13;75.48;100922.63;4867055;29;20105;-93
2021/12/12 05:35:28;;;;;;;3.65;2.70;;;;;;;15.11;75.72;100926.94;4859742;29;20051;-92
2021/12/12 05:37:56;;;;;;;4.03;3.03;;;;;;;15.02;75.69;100909.06;4869735;29;20025;-92
2021/12/12 05:40:39;;;;;;;4.97;3.03;;;;;;;14.68;75.94;100846.41;4854302;29;20072;-94
2021/12/12 05:43:08;;;;;;;6.20;2.90;;;;;;;15.05;76.47;100913.56;4839101;29;20038;-93
2021/12/12 05:45:40;;;;;;;3.88;2.70;;;;;;;15.20;75.42;100916.78;4845743;29;20037;-94
2021/12/12 05:48:11;;;;;;;3.97;2.70;;;;;;;15.23;75.50;100930.03;4857559;29;20411;-95
2021/12/12 05:51:09;;;;;;;4.93;2.80;;;;;;;15.16;75.85;100927.13;4863445;29;20530;-95
2021/12/12 05:54:08;;;;;;;4.72;3.00;;;;;;;15.17;75.73;100937.69;4854240;29;20065;-95
2021/12/12 05:56:40;;;;;;;4.32;2.97;;;;;;;15.12;75.75;100941.88;4846515;29;20042;-92
2021/12/12 05:59:17;;;;;;;5.00;2.75;;;;;;;15.15;75.59;100938.47;4843862;29;20026;-95
2021/12/12 06:01:48;;;;;;;3.45;2.60;;;;;;;15.36;74.87;100949.78;4868800;29;20029;-94
2021/12/12 06:04:21;;;;;;;5.35;2.55;;;;;;;15.29;75.24;100949.53;4869498;29;20060;-96
2021/12/12 06:06:51;;;;;;;4.97;2.97;;;;;;;15.22;75.18;100940.50;4871920;29;20098;-95
2021/12/12 06:09:36;;;;;;;4.57;2.80;;;;;;;15.38;74.93;100966.53;4882234;29;20162;-94
2021/12/12 06:15:27;;;;;;;4.13;2.90;;;;;;;14.92;75.25;100903.41;4864658;29;20090;-92
2021/12/12 06:18:18;;;;;;;4.25;2.67;;;;;;;15.31;75.32;100975.06;4853583;29;20033;-93
2021/12/12 06:20:44;;;;;;;4.10;2.42;;;;;;;15.34;75.05;100969.00;4844667;29;20124;-96
2021/12/12 06:23:15;;;;;;;4.13;2.70;;;;;;;15.29;74.62;100939.00;4856474;29;20033;-92
2021/12/12 06:25:52;;;;;;;4.97;2.90;;;;;;;15.39;74.88;100976.25;4847958;29;20053;-94
2021/12/12 06:28:31;;;;;;;4.47;2.53;;;;;;;15.44;74.64;100966.78;4861283;29;20113;-95
2021/12/12 06:31:20;;;;;;;3.80;2.50;;;;;;;15.39;75.11;100949.03;4870594;29;20028;-95
2021/12/12 06:34:05;;;;;;;3.22;2.58;;;;;;;15.46;74.71;100937.88;4855057;29;20044;-93
2021/12/12 06:36:32;;;;;;;4.28;2.63;;;;;;;15.37;74.43;100925.28;3170168;23;21193;-87
2021/12/12 06:39:00;;;;;;;2.92;2.20;;;;;;;15.35;74.38;100919.06;4846249;29;20053;-92
2021/12/12 06:41:56;;;;;;;4.53;2.70;;;;;;;15.41;74.91;100965.78;4832858;29;20495;-93
2021/12/12 06:44:25;;;;;;;3.67;2.60;;;;;;;15.19;74.90;100936.00;4840850;29;20030;-92
2021/12/12 06:46:54;;;;;;;4.30;2.90;;;;;;;15.52;74.56;100964.44;4826732;29;20171;-91
2021/12/12 06:49:23;;;;;;;4.53;2.60;;;;;;;15.42;74.58;100951.78;4844077;29;20072;-91
2021/12/12 06:52:07;;;;;;;3.95;2.42;;;;;;;15.19;74.84;100921.97;4875524;29;20048;-90
2021/12/12 06:54:37;;;;;;;3.83;2.50;;;;;;;15.42;75.02;100957.91;4835064;29;20489;-91
2021/12/12 06:57:08;;;;;;;4.43;2.85;;;;;;;15.44;74.85;100964.13;4826978;29;20045;-91
2021/12/12 06:59:46;;;;;;;4.30;2.63;;;;;;;15.28;75.14;100961.75;4844832;29;20057;-91
2021/12/12 07:02:12;;;;;;;3.65;2.40;;;;;;;15.12;74.59;100922.59;4829463;29;20465;-90
2021/12/12 07:04:41;;;;;;;;;;;;;;;15.48;74.97;101002.91;4844985;29;20489;-91
2021/12/12 07:07:09;;;;;;;4.13;2.47;;;;;;;15.30;74.56;100970.63;4834207;29;19916;-91
2021/12/12 07:09:46;;;;;;;3.83;2.50;;;;;;;15.51;74.69;101024.91;4842132;29;20495;-92
2021/12/12 07:12:21;;;;;;;3.95;2.63;;;;;;;15.32;74.95;101011.03;4842580;29;20407;-91
2021/12/12 07:14:47;;;;;;;3.83;2.58;;;;;;;15.12;75.12;100991.88;4842771;29;20044;-90
2021/12/12 07:17:15;;;;;;;3.92;2.80;;;;;;;15.13;75.12;100996.28;4826571;29;20033;-88
2021/12/12 07:19:47;;;;;;;3.40;2.53;;;;;;;15.14;75.99;101045.44;4848109;29;20033;-88
2021/12/12 07:22:21;;;;;;;3.45;2.50;;;;;;;15.02;75.81;101016.00;4830793;29;20492;-93
2021/12/12 07:24:47;;;;;;;3.38;2.38;;;;;;;15.15;76.13;101047.22;4831567;29;20064;-92
2021/12/12 07:27:16;;;;;;;4.22;2.53;;;;;;;15.19;75.89;101053.50;4823035;29;20033;-91
2021/12/12 07:29:46;;;;;;;4.30;2.80;;;;;;;14.85;75.76;100997.81;4830215;29;20048;-90
2021/12/12 07:32:14;;;;;;;5.35;2.55;;;;;;;15.21;75.95;101051.81;4827426;29;20041;-89
2021/12/12 07:34:41;;;;;;;3.25;2.20;;;;;;;15.19;75.74;101037.72;4828522;29;20102;-90
2021/12/12 07:37:09;;;;;;;2.53;2.28;;;;;;;15.30;75.05;101024.97;4839853;29;20049;-89
2021/12/12 07:39:40;;;;;;;4.32;2.58;;;;;;;14.98;75.03;100950.97;4824105;29;20182;-90
2021/12/12 07:42:07;;;;;;;4.20;2.58;;;;;;;15.35;75.28;101026.97;4806351;29;20046;-90
2021/12/12 07:44:40;;;;;;;4.00;2.42;;;;;;;15.03;75.58;100976.63;4826557;29;20030;-87
2021/12/12 07:47:11;;;;;;;3.38;2.33;;;;;;;14.77;74.72;100901.97;4824219;29;20049;-90
2021/12/12 07:49:57;;;;;;;3.88;2.90;;;;;;;15.40;75.11;101042.91;4823037;29;20042;-93
2021/12/12 07:52:29;;;;;;;5.47;3.22;;;;;;;15.11;75.58;101012.84;4829181;29;20097;-91
2021/12/12 07:54:58;;;;;;;5.45;3.10;;;;;;;14.94;76.38;100996.38;4859314;29;20408;-92
2021/12/12 07:57:29;;;;;;;3.50;2.70;;;;;;;14.78;75.92;100971.22;4826321;29;20034;-92
2021/12/12 07:59:59;;;;;;;8.70;3.35;;;;;;;14.65;75.29;100930.41;4844537;29;20050;-93
2021/12/12 08:02:30;;;;;;;5.90;3.40;;;;;;;15.16;75.01;101014.81;4822500;29;20528;-88
2021/12/12 08:05:02;;;;;;;9.20;3.53;;;;;;;15.43;74.54;101061.44;4827050;29;20041;-91
2021/12/12 08:07:44;;;;;;;7.97;3.50;;;;;;;15.45;74.66;101076.50;4825145;29;20419;-92
2021/12/12 08:10:16;;;;;;;8.70;3.30;;;;;;;14.84;73.85;100982.88;4828648;29;20067;-96
2021/12/12 08:12:44;;;;;;;8.45;3.40;;;;;;;15.24;74.25;101073.91;4842034;29;20456;-90
2021/12/12 08:15:17;;;;;;;6.80;3.28;;;;;;;14.97;74.16;101022.81;4828464;29;20034;-92
2021/12/12 08:17:57;;;;;;;8.85;3.22;;;;;;;15.27;74.46;101067.84;4824266;29;20041;-93
2021/12/12 08:21:16;;;;;;;9.00;3.33;;;;;;;15.45;74.24;101096.63;4833678;29;20033;-91
2021/12/12 08:24:24;;;;;;;8.10;3.30;;;;;;;15.40;74.24;101098.19;4852953;29;20543;-92
2021/12/12 08:27:19;;;;;;;9.32;3.50;;;;;;;15.36;74.31;101099.78;4842876;29;20074;-89
2021/12/12 08:29:52;;;;;;;9.90;3.13;;;;;;;14.55;74.33;100955.41;4836439;29;20496;-92
2021/12/12 08:32:18;;;;;;;10.75;3.47;;;;;;;14.89;74.16;101013.72;4826820;29;20120;-90
2021/12/12 08:34:45;;;;;;;;;;;;;;;15.46;73.96;101094.06;4828911;29;20493;-90
2021/12/12 08:37:11;;;;;;;10.15;3.58;;;;;;;15.13;74.16;101046.25;4828181;29;20467;-92
2021/12/12 08:39:45;;;;;;;9.35;3.50;;;;;;;15.16;74.22;101063.91;4815394;29;20125;-91
2021/12/12 08:42:26;;;;;;;7.30;3.47;;;;;;;15.31;74.34;101098.72;4828120;29;20185;-91
2021/12/12 08:44:58;;;;;;;6.47;3.65;;;;;;;15.20;74.76;101097.41;4856410;29;20523;-91
2021/12/12 08:47:25;;;;;;;6.43;3.38;;;;;;;15.29;74.07;101091.59;4843415;29;20059;-90
2021/12/12 08:49:56;;;;;;;10.82;3.95;;;;;;;15.01;74.26;101067.72;4843038;29;20679;-90
2021/12/12 08:52:31;;;;;;;7.20;3.35;;;;;;;15.16;74.48;101091.09;4834373;29;20030;-88
2021/12/12 08:54:58;;;;;;;7.95;3.53;;;;;;;15.17;74.50;101087.63;4856310;29;20048;-90
2021/12/12 08:57:46;;;;;;;8.63;3.25;;;;;;;15.12;74.27;101065.50;4827695;29;20029;-92
2021/12/12 09:00:22;;;;;;;7.93;3.33;;;;;;;15.05;74.06;101042.44;4846307;29;20042;-93
2021/12/12 09:06:11;;;;;;;8.30;3.22;;;;;;;15.22;74.37;101066.78;4855295;29;20048;-92
2021/12/12 09:09:16;;;;;;;7.15;3.67;;;;;;;15.21;74.25;101064.97;4823322;29;20022;-94
2021/12/12 09:12:07;;;;;;;7.07;3.53;;;;;;;15.18;74.35;101057.88;4850630;29;20029;-90
2021/12/12 09:14:48;;;;;;;5.13;3.58;;;;;;;15.07;74.37;101054.81;4844278;29;20030;-89
2021/12/12 09:17:40;;;;;;;6.55;3.17;;;;;;;15.15;74.57;101067.38;4846253;29;20085;-91
2021/12/12 09:20:35;;;;;;;7.45;3.70;;;;;;;15.21;74.07;101065.88;4828974;29;20045;-91
2021/12/12 09:23:34;;;;;;;8.40;3.10;;;;;;;15.14;74.38;101084.88;4813516;29;20129;-92
2021/12/12 09:26:15;;;;;;;7.95;3.25;;;;;;;15.02;74.48;101081.75;4829052;29;20487;-91
2021/12/12 09:29:05;;;;;;;9.23;3.50;;;;;;;15.10;74.37;101085.59;4833468;29;20482;-95
2021/12/12 09:31:38;;;;;;;7.50;3.25;;;;;;;14.94;74.46;101065.66;4844366;29;20076;-87
2021/12/12 09:34:31;;;;;;;4.63;3.40;;;;;;;15.11;74.11;101071.59;4830210;29;20125;-92
2021/12/12 09:37:02;;;;;;;8.35;3.92;;;;;;;14.95;74.16;101064.81;4825830;29;20045;-92
2021/12/12 09:39:33;;;;;;;5.55;3.40;;;;;;;14.83;74.42;101065.22;4860091;29;20109;-90
2021/12/12 09:42:32;;;;;;;6.60;3.35;;;;;;;15.03;74.66;101099.34;4841134;29;20065;-93
2021/12/12 09:45:44;;;;;;;6.22;3.53;;;;;;;15.00;74.48;101096.56;4864213;29;20036;-93
2021/12/12 09:51:50;;;;;;;6.35;3.70;;;;;;;14.90;74.28;101053.25;4881330;29;20044;-94
2021/12/12 09:57:56;;;;;;;7.15;3.25;;;;;;;14.99;74.48;101100.94;4875358;29;20518;-93
2021/12/12 10:00:40;;;;;;;7.10;3.40;;;;;;;14.96;74.74;101102.53;4847126;29;20034;-91
2021/12/12 10:03:13;;;;;;;8.32;3.20;;;;;;;14.99;74.35;101100.06;4876450;29;20067;-90
2021/12/12 10:06:21;;;;;;;5.97;3.50;;;;;;;14.97;74.52;101093.81;4844034;29;20048;-93
2021/12/12 10:09:25;;;;;;;6.22;3.28;;;;;;;15.10;73.65;101101.38;4857840;29;20085;-92
2021/12/12 10:12:33;;;;;;;5.63;3.58;;;;;;;14.97;74.39;101091.19;4877942;29;20048;-94
2021/12/12 10:18:29;;;;;;;6.65;3.47;;;;;;;14.62;74.44;101036.28;4867480;29;20178;-91
2021/12/12 10:21:16;;;;;;;4.85;3.40;;;;;;;14.65;74.46;101049.59;4864153;29;20036;-92
2021/12/12 10:24:22;;;;;;;8.05;3.63;;;;;;;15.02;74.04;101093.16;4852557;29;20503;-92
2021/12/12 10:27:10;;;;;;;5.78;3.38;;;;;;;14.97;74.27;101073.69;4863243;29;20098;-90
2021/12/12 10:29:54;;;;;;;6.30;3.28;;;;;;;14.80;73.93;101048.44;4850764;29;20068;-93
2021/12/12 10:32:29;;;;;;;7.88;3.45;;;;;;;14.83;74.50;101065.22;4854174;29;20033;-92
2021/12/12 10:35:12;;;;;;;7.28;3.25;;;;;;;14.72;74.49;101048.09;4844821;29;20040;-93
2021/12/12 10:37:51;;;;;;;5.68;3.15;;;;;;;14.66;74.60;101035.59;4861590;29;20194;-92
2021/12/12 10:40:45;;;;;;;5.22;3.40;;;;;;;14.93;74.32;101052.47;4879486;29;20037;-92
2021/12/12 10:43:14;;;;;;;5.30;3.42;;;;;;;14.64;74.50;101017.97;4862417;29;20064;-91
2021/12/12 10:46:11;;;;;;;5.78;3.63;;;;;;;14.88;74.54;101060.16;4863296;29;20518;-91
2021/12/12 10:48:57;;;;;;;5.03;3.22;;;;;;;14.95;74.19;101056.94;4841199;29;20041;-92
2021/12/12 10:51:25;;;;;;;4.90;3.08;;;;;;;14.88;74.04;101051.34;4874295;29;20097;-89
2021/12/12 10:57:28;;;;;;;5.88;3.53;;;;;;;14.82;74.66;101065.16;4862239;29;20038;-91
2021/12/12 11:00:03;;;;;;;5.13;3.20;;;;;;;14.67;74.28;101044.41;4858704;29;20044;-92
2021/12/12 11:03:08;;;;;;;5.70;3.42;;;;;;;14.91;74.31;101088.31;4863066;29;20036;-92
2021/12/12 11:05:44;;;;;;;4.43;3.45;;;;;;;14.85;74.35;101078.44;4810293;29;20049;-91
2021/12/12 11:11:23;;;;;;;4.82;3.13;;;;;;;14.73;74.23;101060.44;4876182;29;19996;-93
2021/12/12 11:14:12;;;;;;;3.92;3.10;;;;;;;14.54;74.36;101031.53;4844612;29;20029;-92
2021/12/12 11:17:10;;;;;;;6.30;3.55;;;;;;;14.83;74.40;101082.72;4846099;29;20096;-92
2021/12/12 11:19:54;;;;;;;6.05;3.55;;;;;;;14.82;74.52;101073.94;4877676;29;20028;-91
2021/12/12 11:22:41;;;;;;;5.82;3.38;;;;;;;14.81;74.40;101087.91;4864159;29;20047;-85
2021/12/12 11:25:14;;;;;;;5.30;3.25;;;;;;;14.79;74.43;101083.44;4861446;29;20040;-90
2021/12/12 11:28:06;;;;;;;4.85;3.17;;;;;;;14.85;74.27;101081.06;4861942;29;20221;-93
2021/12/12 11:30:47;;;;;;;5.80;3.67;;;;;;;14.77;74.30;101087.72;4837683;29;20033;-90
2021/12/12 11:33:17;;;;;;;7.82;3.90;;;;;;;14.81;74.32;101074.75;4845997;29;20033;-90
2021/12/12 11:35:53;;;;;;;6.05;3.55;;;;;;;14.57;74.06;101024.72;4857838;29;20025;-92
2021/12/12 11:38:31;;;;;;;5.20;3.60;;;;;;;14.80;74.40;101072.09;4831481;29;20060;-92
2021/12/12 11:44:32;;;;;;;7.38;3.60;;;;;;;14.72;74.41;101066.50;4861079;29;20052;-93
2021/12/12 11:47:35;;;;;;;6.60;3.58;;;;;;;14.83;74.22;101074.84;4843044;29;20044;-92
2021/12/12 11:50:43;;;;;;;5.20;3.55;;;;;;;14.91;73.97;101089.19;4825754;29;20038;-93
2021/12/12 11:53:25;;;;;;;7.15;3.63;;;;;;;14.63;74.20;101060.88;4845420;29;20039;-93
2021/12/12 11:59:20;;;;;;;6.65;3.60;;;;;;;14.52;74.40;101047.25;4846129;29;20678;-92
2021/12/12 12:02:03;;;;;;;6.50;3.60;;;;;;;14.79;74.31;101079.06;4844466;29;20424;-95
2021/12/12 12:04:59;;;;;;;6.63;3.60;;;;;;;14.70;74.56;101065.53;4844096;29;20515;-94
2021/12/12 12:11:24;;;;;;;4.80;3.42;;;;;;;14.75;74.36;101045.63;4859678;29;20065;-92
2021/12/12 12:14:10;;;;;;;4.15;3.42;;;;;;;14.78;74.19;101053.63;4846506;29;20038;-92
2021/12/12 12:16:47;;;;;;;5.65;3.72;;;;;;;14.76;74.22;101057.91;4828138;29;20068;-96
2021/12/12 12:19:14;;;;;;;;;;;;;;;14.83;73.97;101051.16;4822925;29;20476;-94
2021/12/12 12:22:08;;;;;;;5.65;3.28;;;;;;;14.75;74.19;101043.00;4855977;29;20018;-92
2021/12/12 12:25:12;;;;;;;5.28;3.60;;;;;;;14.77;74.32;101049.19;4829257;29;20530;-93
2021/12/12 12:27:41;;;;;;;6.88;3.83;;;;;;;14.40;74.26;100989.81;4819260;29;20037;-95
2021/12/12 12:30:45;;;;;;;4.82;3.38;;;;;;;14.68;74.37;101035.66;4831405;29;20044;-95
2021/12/12 12:36:24;;;;;;;6.57;3.72;;;;;;;14.71;74.42;101041.06;4866017;29;20596;-90
2021/12/12 12:39:38;;;;;;;6.13;3.83;;;;;;;14.74;74.39;101046.44;4854205;29;20085;-94
2021/12/12 12:42:42;;;;;;;5.68;3.72;;;;;;;14.77;74.08;101050.91;4852836;29;20049;-93
2021/12/12 12:49:07;;;;;;;5.38;3.60;;;;;;;14.74;74.37;101050.81;4880112;29;20047;-94
2021/12/12 12:52:27;;;;;;;4.32;3.38;;;;;;;14.70;74.39;101054.13;4870032;29;20041;-94
2021/12/12 12:55:38;;;;;;;4.50;3.30;;;;;;;14.73;74.28;101059.50;4867526;29;20065;-94
2021/12/12 12:58:42;;;;;;;5.60;3.70;;;;;;;14.70;74.35;101067.28;4870041;29;20508;-96
2021/12/12 13:01:25;;;;;;;7.18;4.00;;;;;;;14.67;74.44;101068.06;4763069;30;20051;-95
2021/12/12 13:04:16;;;;;;;4.38;3.55;;;;;;;14.71;74.52;101084.84;4851763;29;20065;-95
2021/12/12 13:07:02;;;;;;;6.45;3.63;;;;;;;14.69;74.42;101086.50;4872969;29;20037;-95
2021/12/12 13:10:11;;;;;;;4.15;3.30;;;;;;;14.73;74.29;101096.31;4871454;29;20033;-94
2021/12/12 13:13:16;;;;;;;5.35;3.65;;;;;;;14.63;74.24;101077.53;4888330;29;20073;-95
2021/12/12 13:16:38;;;;;;;3.60;3.28;;;;;;;14.68;74.36;101097.88;4805024;29;20038;-96
2021/12/12 13:19:10;;;;;;;5.93;3.63;;;;;;;14.69;74.12;101092.69;4815389;29;20082;-96
2021/12/12 13:25:09;;;;;;;5.57;3.22;;;;;;;14.69;74.18;101087.41;4890208;29;20040;-95
2021/12/12 13:31:02;;;;;;;5.22;3.70;;;;;;;14.67;74.27;101099.59;4876664;29;20041;-94
2021/12/12 13:36:58;;;;;;;5.38;3.30;;;;;;;14.65;74.31;101098.63;4882883;29;20029;-95
2021/12/12 13:40:09;;;;;;;5.13;3.30;;;;;;;14.70;74.30;101091.81;4865831;29;20104;-94
2021/12/12 13:43:12;;;;;;;4.20;3.38;;;;;;;14.65;74.39;101101.25;4872660;29;20487;-96
2021/12/12 13:45:40;;;;;;;4.72;3.20;;;;;;;14.66;74.39;101085.53;4854013;29;20029;-90
2021/12/12 13:48:27;;;;;;;5.10;3.40;;;;;;;14.63;74.55;101074.91;4857656;29;20063;-92
2021/12/12 13:50:56;;;;;;;4.90;3.58;;;;;;;14.65;74.33;101081.13;4859606;29;20024;-90
2021/12/12 13:53:44;;;;;;;4.93;3.33;;;;;;;14.65;74.40;101078.50;4862051;29;20044;-91
2021/12/12 13:56:33;;;;;;;4.80;3.55;;;;;;;14.66;74.44;101072.38;4853539;29;20029;-92
2021/12/12 13:59:36;;;;;;;5.75;3.88;;;;;;;14.66;74.39;101072.38;4848601;29;20406;-91
2021/12/12 14:02:13;;;;;;;4.35;3.60;;;;;;;14.62;74.33;101073.09;4854368;29;20029;-92
2021/12/12 14:04:58;;;;;;;6.72;3.53;;;;;;;14.62;74.40;101066.94;4837341;29;20029;-92